Time;durP1;ratioP1;P1;durP2;ratioP2;P2;SDS_P1;SDS_P2;PMS_P1;PMS_P2;Temp;Humidity;BMP_temperature;BMP_pressure;BME280_temperature;BME280_humidity;BME280_pressure;Samples;Min_cycle;Max_cycle;Signal;HPM_P1;HPM_P2
2021/06/12 00:00:30;;;;;;;7.85;3.35;;;20.90;77.60;;;;;;5051630;28;20394;-77
2021/06/12 00:02:57;;;;;;;7.78;3.85;;;20.90;77.80;;;;;;5051880;28;20025;-77
2021/06/12 00:05:23;;;;;;;8.35;3.95;;;20.90;77.80;;;;;;5049867;28;20456;-77
2021/06/12 00:07:49;;;;;;;6.80;4.00;;;20.90;78.00;;;;;;5051109;28;20020;-77
2021/06/12 00:10:19;;;;;;;7.75;4.30;;;20.80;78.00;;;;;;5050688;28;20108;-76
2021/06/12 00:12:45;;;;;;;7.65;4.18;;;20.90;78.00;;;;;;5050574;28;20083;-76
2021/06/12 00:15:12;;;;;;;6.40;3.67;;;20.90;78.00;;;;;;5051851;28;20033;-76
2021/06/12 00:17:38;;;;;;;8.73;4.50;;;20.90;78.00;;;;;;5050896;28;20481;-76
2021/06/12 00:20:10;;;;;;;10.10;3.97;;;20.90;78.10;;;;;;5051293;28;20021;-76
2021/06/12 00:22:36;;;;;;;7.47;4.30;;;20.80;78.20;;;;;;5050812;28;20415;-76
2021/06/12 00:25:03;;;;;;;7.72;4.15;;;20.80;78.30;;;;;;5051682;28;20021;-76
2021/06/12 00:27:28;;;;;;;8.57;4.57;;;20.80;78.40;;;;;;5051094;28;20021;-75
2021/06/12 00:29:54;;;;;;;7.03;3.90;;;20.70;78.60;;;;;;5051298;28;20036;-77
2021/06/12 00:32:20;;;;;;;10.13;4.50;;;20.70;79.50;;;;;;5051212;28;20063;-77
2021/06/12 00:34:46;;;;;;;8.02;4.60;;;20.70;79.20;;;;;;5051683;28;20072;-76
2021/06/12 00:37:11;;;;;;;7.53;4.07;;;20.60;79.20;;;;;;5051545;28;20049;-76
2021/06/12 00:39:37;;;;;;;9.13;4.07;;;20.60;79.30;;;;;;5049585;28;20457;-75
2021/06/12 00:42:03;;;;;;;7.68;3.85;;;20.60;79.40;;;;;;5049975;28;20488;-76
2021/06/12 00:44:29;;;;;;;7.68;4.20;;;20.60;79.50;;;;;;5050875;28;20033;-77
2021/06/12 00:46:54;;;;;;;8.93;4.82;;;20.50;79.50;;;;;;5051438;28;20055;-77
2021/06/12 00:49:20;;;;;;;10.18;4.22;;;20.50;79.70;;;;;;5051421;28;20040;-77
2021/06/12 00:51:48;;;;;;;8.73;4.50;;;20.40;79.80;;;;;;5049710;28;20027;-76
2021/06/12 00:54:13;;;;;;;6.97;4.38;;;20.40;80.00;;;;;;5051348;28;20128;-76
2021/06/12 00:56:39;;;;;;;9.00;4.40;;;20.40;80.00;;;;;;5049408;28;20108;-75
2021/06/12 00:59:05;;;;;;;8.85;4.43;;;20.40;80.10;;;;;;5051252;28;20033;-75
2021/06/12 01:01:31;;;;;;;6.93;3.90;;;20.40;80.20;;;;;;5049250;28;20027;-76
2021/06/12 01:03:59;;;;;;;8.07;4.25;;;20.40;80.20;;;;;;5050980;28;20056;-76
2021/06/12 01:06:25;;;;;;;8.00;4.55;;;20.30;80.20;;;;;;5049388;28;20025;-77
2021/06/12 01:08:50;;;;;;;8.15;3.67;;;20.30;80.30;;;;;;5049959;28;20017;-75
2021/06/12 01:11:17;;;;;;;8.63;4.30;;;20.30;80.50;;;;;;5050415;28;20476;-76
2021/06/12 01:14:04;;;;;;;8.43;4.25;;;20.30;80.50;;;;;;5049764;28;20025;-76
2021/06/12 01:16:51;;;;;;;9.65;3.92;;;20.30;80.60;;;;;;5049553;28;20044;-76
2021/06/12 01:20:01;;;;;;;9.07;4.40;;;20.30;80.60;;;;;;5052272;28;20083;-75
2021/06/12 01:22:50;;;;;;;7.75;4.03;;;20.20;80.60;;;;;;5053103;28;20523;-76
2021/06/12 01:25:25;;;;;;;8.13;3.95;;;20.20;80.80;;;;;;5055242;28;20104;-77
2021/06/12 01:28:08;;;;;;;9.77;4.22;;;20.20;80.90;;;;;;5053727;28;20418;-76
2021/06/12 01:30:35;;;;;;;9.40;4.68;;;20.30;80.90;;;;;;5054026;28;20330;-76
2021/06/12 01:33:08;;;;;;;9.05;4.55;;;20.20;80.90;;;;;;5054725;28;20029;-76
2021/06/12 01:35:47;;;;;;;12.77;4.38;;;20.20;81.10;;;;;;5053600;28;20045;-76
2021/06/12 01:38:25;;;;;;;7.93;4.00;;;20.20;81.30;;;;;;5054457;28;20021;-76
2021/06/12 01:40:52;;;;;;;8.50;4.22;;;20.20;81.30;;;;;;5053208;28;20475;-75
2021/06/12 01:43:19;;;;;;;7.57;4.53;;;20.10;81.30;;;;;;5054328;28;20481;-76
2021/06/12 01:45:47;;;;;;;9.68;4.70;;;20.20;81.40;;;;;;5053621;28;20020;-77
2021/06/12 01:48:13;;;;;;;8.57;4.18;;;20.20;81.40;;;;;;5053980;28;20406;-76
2021/06/12 01:50:40;;;;;;;9.23;4.35;;;20.20;81.30;;;;;;5053318;28;20017;-77
2021/06/12 01:53:08;;;;;;;9.18;4.70;;;20.30;81.30;;;;;;5054022;28;20465;-76
2021/06/12 01:55:36;;;;;;;7.20;4.10;;;20.20;81.40;;;;;;5052262;28;20020;-76
2021/06/12 01:58:05;;;;;;;7.95;3.88;;;20.30;81.30;;;;;;5054106;28;20100;-76
2021/06/12 02:00:32;;;;;;;8.43;4.47;;;20.30;81.30;;;;;;5053692;28;20017;-77
2021/06/12 02:02:59;;;;;;;7.40;3.85;;;20.30;81.20;;;;;;5053932;28;20032;-76
2021/06/12 02:05:26;;;;;;;8.98;4.57;;;20.30;81.10;;;;;;5053965;28;20040;-76
2021/06/12 02:07:54;;;;;;;7.55;4.30;;;20.30;81.00;;;;;;5052557;28;20106;-76
2021/06/12 02:10:24;;;;;;;6.75;3.65;;;20.30;81.10;;;;;;5052484;28;20032;-75
2021/06/12 02:12:52;;;;;;;8.77;4.38;;;20.30;81.10;;;;;;5052779;28;20389;-76
2021/06/12 02:15:19;;;;;;;10.60;4.45;;;20.30;81.20;;;;;;5054093;28;20480;-76
2021/06/12 02:17:46;;;;;;;11.18;4.60;;;20.30;81.40;;;;;;5051880;28;20032;-77
2021/06/12 02:20:16;;;;;;;8.80;4.53;;;20.20;81.40;;;;;;5053402;28;20029;-76
2021/06/12 02:22:52;;;;;;;9.20;4.10;;;20.20;81.70;;;;;;5051874;28;20017;-76
2021/06/12 02:25:19;;;;;;;8.40;4.20;;;20.10;81.70;;;;;;5053602;28;20025;-77
2021/06/12 02:27:48;;;;;;;9.68;4.72;;;20.10;81.80;;;;;;5053156;28;20025;-76
2021/06/12 02:30:17;;;;;;;8.02;4.43;;;20.10;81.90;;;;;;5053429;28;20453;-76
2021/06/12 02:32:48;;;;;;;11.13;4.07;;;20.00;82.10;;;;;;5050491;28;20017;-76
2021/06/12 02:35:14;;;;;;;8.88;3.88;;;19.90;82.30;;;;;;5052236;28;20017;-77
2021/06/12 02:37:43;;;;;;;8.65;4.30;;;19.90;82.30;;;;;;5052677;28;20060;-75
2021/06/12 02:40:09;;;;;;;9.30;4.45;;;19.90;82.60;;;;;;5052037;28;20033;-76
2021/06/12 02:42:35;;;;;;;9.88;3.70;;;19.90;82.60;;;;;;5052734;28;20033;-76
2021/06/12 02:45:05;;;;;;;7.68;3.65;;;19.90;82.40;;;;;;5053099;28;20031;-76
2021/06/12 02:47:34;;;;;;;9.73;3.88;;;19.90;82.40;;;;;;5052713;28;20024;-78
2021/06/12 02:50:00;;;;;;;8.32;3.83;;;20.00;82.40;;;;;;5052728;28;20420;-76
2021/06/12 02:52:30;;;;;;;8.15;3.80;;;20.00;82.30;;;;;;5051615;28;20017;-76
2021/06/12 02:54:59;;;;;;;8.35;3.42;;;20.00;82.30;;;;;;5051611;28;20036;-77
2021/06/12 02:57:26;;;;;;;9.55;4.00;;;20.00;82.40;;;;;;5052849;28;20021;-75
2021/06/12 02:59:53;;;;;;;11.52;3.92;;;20.00;82.20;;;;;;5051055;28;20029;-77
2021/06/12 03:02:20;;;;;;;9.85;4.10;;;20.00;82.40;;;;;;5051774;28;20546;-76
2021/06/12 03:04:47;;;;;;;9.15;4.93;;;19.90;82.60;;;;;;5050886;28;20058;-77
2021/06/12 03:07:13;;;;;;;8.77;3.90;;;19.80;82.70;;;;;;5051477;28;20023;-77
2021/06/12 03:09:41;;;;;;;7.47;3.42;;;19.80;82.70;;;;;;5052469;28;20029;-76
2021/06/12 03:12:08;;;;;;;8.85;4.07;;;19.80;82.90;;;;;;5053328;28;20472;-77
2021/06/12 03:14:38;;;;;;;7.85;3.13;;;19.80;82.90;;;;;;5051922;28;20108;-77
2021/06/12 03:17:06;;;;;;;10.63;4.28;;;19.80;83.00;;;;;;5050940;28;20170;-76
2021/06/12 03:19:32;;;;;;;10.60;4.28;;;19.80;82.90;;;;;;5052501;28;20031;-76
2021/06/12 03:21:59;;;;;;;10.63;4.55;;;19.80;83.00;;;;;;5051089;28;20071;-77
2021/06/12 03:24:26;;;;;;;9.43;3.65;;;19.80;83.10;;;;;;5052573;28;20057;-75
2021/06/12 03:26:58;;;;;;;7.78;3.75;;;19.80;83.10;;;;;;5051732;28;20021;-77
2021/06/12 03:29:24;;;;;;;8.50;4.13;;;19.80;83.10;;;;;;5052454;28;20056;-76
2021/06/12 03:31:49;;;;;;;9.05;4.32;;;19.80;83.10;;;;;;5051722;28;20474;-75
2021/06/12 03:34:16;;;;;;;8.75;3.70;;;19.80;83.20;;;;;;5050874;28;20037;-75
2021/06/12 03:36:42;;;;;;;8.15;3.95;;;19.70;83.20;;;;;;5051601;28;20048;-75
2021/06/12 03:39:08;;;;;;;8.98;4.00;;;19.70;83.30;;;;;;5050888;28;20029;-76
2021/06/12 03:41:35;;;;;;;8.13;3.90;;;19.70;83.30;;;;;;5051891;28;20162;-77
2021/06/12 03:44:01;;;;;;;11.93;4.03;;;19.70;83.20;;;;;;5052156;28;20071;-76
2021/06/12 03:46:27;;;;;;;8.18;4.03;;;19.70;83.40;;;;;;5052008;28;20024;-76
2021/06/12 03:48:55;;;;;;;11.23;3.80;;;19.70;83.50;;;;;;5051504;28;20472;-76
2021/06/12 03:51:21;;;;;;;9.32;4.45;;;19.70;83.40;;;;;;5052033;28;20453;-77
2021/06/12 03:53:48;;;;;;;7.60;3.63;;;19.60;83.70;;;;;;5051257;28;20109;-76
2021/06/12 03:56:19;;;;;;;8.60;3.92;;;19.60;83.80;;;;;;5050648;28;20063;-76
2021/06/12 03:58:48;;;;;;;8.35;4.20;;;19.60;84.00;;;;;;5050208;28;20373;-75
2021/06/12 04:01:15;;;;;;;10.23;3.72;;;19.60;84.30;;;;;;5052137;28;20017;-75
2021/06/12 04:03:42;;;;;;;12.73;4.15;;;19.60;84.30;;;;;;5050056;28;20024;-76
2021/06/12 04:06:08;;;;;;;8.18;3.97;;;19.60;84.30;;;;;;5052043;28;20025;-76
2021/06/12 04:08:34;;;;;;;9.07;4.35;;;19.60;84.30;;;;;;5051924;28;20223;-76
2021/06/12 04:11:00;;;;;;;6.53;3.05;;;19.60;84.30;;;;;;5049942;28;20480;-75
2021/06/12 04:13:26;;;;;;;10.07;4.00;;;19.60;84.30;;;;;;5050419;28;20036;-77
2021/06/12 04:15:52;;;;;;;8.40;4.30;;;19.60;84.40;;;;;;5051187;28;20454;-76
2021/06/12 04:18:18;;;;;;;8.30;3.63;;;19.70;84.50;;;;;;5051718;28;20029;-76
2021/06/12 04:20:44;;;;;;;10.43;4.25;;;19.70;84.30;;;;;;5051085;28;20028;-77
2021/06/12 04:23:09;;;;;;;11.02;4.15;;;19.80;84.50;;;;;;5050467;28;20036;-76
2021/06/12 04:25:36;;;;;;;9.60;4.32;;;19.80;84.40;;;;;;5050287;28;20546;-76
2021/06/12 04:28:02;;;;;;;15.15;5.38;;;19.70;84.40;;;;;;5049727;28;20021;-76
2021/06/12 04:30:28;;;;;;;12.85;5.47;;;19.80;84.50;;;;;;5051660;28;20017;-76
2021/06/12 04:32:54;;;;;;;14.38;5.90;;;19.80;84.60;;;;;;5049527;28;20481;-76
2021/06/12 04:35:19;;;;;;;9.90;4.38;;;19.80;84.60;;;;;;5051609;28;20064;-77
2021/06/12 04:37:45;;;;;;;10.80;5.35;;;19.80;84.60;;;;;;5050662;28;20049;-77
2021/06/12 04:40:12;;;;;;;13.55;5.50;;;19.80;84.60;;;;;;5050468;28;20428;-76
2021/06/12 04:42:38;;;;;;;13.30;5.07;;;19.80;84.40;;;;;;5051618;28;20100;-77
2021/06/12 04:45:06;;;;;;;11.18;5.43;;;19.80;84.40;;;;;;5051545;28;20136;-76
2021/06/12 04:47:32;;;;;;;9.57;5.55;;;19.90;84.40;;;;;;5050789;28;20017;-76
2021/06/12 04:49:57;;;;;;;12.95;5.72;;;19.90;84.10;;;;;;5049398;28;20021;-75
2021/06/12 04:52:23;;;;;;;10.40;5.80;;;19.90;84.20;;;;;;5051458;28;20335;-77
2021/06/12 04:54:49;;;;;;;11.75;6.25;;;19.90;84.40;;;;;;5052423;28;20033;-77
2021/06/12 04:57:15;;;;;;;13.90;6.40;;;19.90;84.50;;;;;;5055303;28;20029;-75
2021/06/12 04:59:41;;;;;;;12.73;6.03;;;20.00;85.10;;;;;;5053235;28;20031;-76
2021/06/12 05:02:06;;;;;;;12.02;6.28;;;19.90;84.40;;;;;;5054882;28;20099;-76
2021/06/12 05:04:32;;;;;;;14.77;6.40;;;19.90;84.40;;;;;;5053752;28;20029;-76
2021/06/12 05:06:58;;;;;;;11.45;6.35;;;19.90;84.40;;;;;;5054469;28;20017;-76
2021/06/12 05:09:24;;;;;;;13.15;5.78;;;19.90;84.60;;;;;;5053872;28;20057;-75
2021/06/12 05:11:50;;;;;;;11.60;6.05;;;19.90;84.50;;;;;;5053102;28;20060;-76
2021/06/12 05:14:17;;;;;;;13.10;5.90;;;19.90;84.40;;;;;;5054672;28;20033;-76
2021/06/12 05:16:42;;;;;;;11.10;6.57;;;19.90;84.30;;;;;;5054237;28;20013;-77
2021/06/12 05:19:08;;;;;;;10.90;7.15;;;19.90;84.30;;;;;;5055071;28;20033;-77
2021/06/12 05:21:39;;;;;;;12.93;6.85;;;19.90;84.30;;;;;;5055025;28;20025;-77
2021/06/12 05:24:06;;;;;;;11.18;6.70;;;19.80;84.10;;;;;;5053923;28;20427;-76
2021/06/12 05:26:32;;;;;;;11.93;6.72;;;19.80;84.20;;;;;;5053471;28;20376;-77
2021/06/12 05:28:58;;;;;;;13.23;6.55;;;19.80;84.10;;;;;;5054137;28;20025;-77
2021/06/12 05:31:23;;;;;;;13.85;6.97;;;19.90;84.10;;;;;;5054588;28;20354;-77
2021/06/12 05:33:49;;;;;;;13.85;7.38;;;19.90;84.00;;;;;;5053677;28;20034;-76
2021/06/12 05:36:16;;;;;;;11.15;6.32;;;19.90;83.80;;;;;;5054120;28;20033;-76
2021/06/12 05:38:42;;;;;;;11.88;5.82;;;19.90;83.70;;;;;;5054615;28;20025;-76
2021/06/12 05:41:08;;;;;;;10.48;6.30;;;20.00;83.60;;;;;;5054633;28;20032;-76
2021/06/12 05:43:34;;;;;;;13.57;6.22;;;20.10;83.50;;;;;;5054103;28;20362;-76
2021/06/12 05:46:00;;;;;;;11.55;5.50;;;20.10;83.40;;;;;;5053857;28;20090;-75
2021/06/12 05:48:25;;;;;;;9.75;5.80;;;20.10;83.40;;;;;;5053006;28;20128;-76
2021/06/12 05:50:52;;;;;;;11.32;5.57;;;20.10;83.30;;;;;;5053623;28;20072;-76
2021/06/12 05:53:18;;;;;;;11.60;5.45;;;20.10;83.10;;;;;;5054212;28;20078;-76
2021/06/12 05:55:44;;;;;;;8.88;4.70;;;20.10;83.00;;;;;;5054166;28;20025;-76
2021/06/12 05:58:10;;;;;;;11.68;5.05;;;20.10;83.10;;;;;;5054099;28;20154;-77
2021/06/12 06:00:36;;;;;;;11.30;5.57;;;20.10;83.10;;;;;;5054017;28;20021;-76
2021/06/12 06:03:02;;;;;;;11.07;4.72;;;20.10;83.00;;;;;;5051787;28;20104;-77
2021/06/12 06:05:28;;;;;;;10.65;5.38;;;20.20;82.90;;;;;;5053156;28;20029;-76
2021/06/12 06:07:54;;;;;;;11.75;5.68;;;20.20;82.90;;;;;;5052647;28;20025;-77
2021/06/12 06:10:20;;;;;;;11.63;5.32;;;20.20;82.60;;;;;;5052605;28;20021;-76
2021/06/12 06:12:46;;;;;;;10.13;4.70;;;20.20;82.40;;;;;;5053326;28;20526;-76
2021/06/12 06:15:13;;;;;;;10.32;5.63;;;20.20;82.50;;;;;;5052532;28;20477;-75
2021/06/12 06:17:40;;;;;;;11.85;5.65;;;20.20;82.50;;;;;;5053684;28;20082;-78
2021/06/12 06:20:07;;;;;;;8.48;4.95;;;20.20;82.40;;;;;;5052999;28;20260;-76
2021/06/12 06:22:33;;;;;;;7.13;3.90;;;20.10;82.40;;;;;;5053778;28;20025;-76
2021/06/12 06:24:59;;;;;;;8.23;4.53;;;20.20;82.30;;;;;;5052945;28;20082;-76
2021/06/12 06:27:25;;;;;;;8.38;4.00;;;20.20;82.20;;;;;;5053943;28;20104;-76
2021/06/12 06:29:50;;;;;;;8.88;4.28;;;20.20;81.90;;;;;;5051583;28;20024;-77
2021/06/12 06:32:16;;;;;;;7.30;3.80;;;20.30;81.70;;;;;;5052268;28;20047;-77
2021/06/12 06:34:42;;;;;;;6.57;3.55;;;20.20;81.50;;;;;;5052123;28;20470;-76
2021/06/12 06:37:07;;;;;;;6.65;2.80;;;20.30;81.40;;;;;;5051190;28;20127;-76
2021/06/12 06:39:33;;;;;;;7.55;3.60;;;20.30;81.20;;;;;;5053021;28;20063;-76
2021/06/12 06:41:59;;;;;;;8.43;3.72;;;20.40;80.80;;;;;;5051276;28;20021;-76
2021/06/12 06:44:25;;;;;;;6.25;3.33;;;20.40;80.80;;;;;;5053572;28;20197;-77
2021/06/12 06:46:50;;;;;;;9.10;3.40;;;20.40;80.20;;;;;;5051282;28;20422;-77
2021/06/12 06:49:16;;;;;;;8.35;3.97;;;20.40;80.20;;;;;;5051892;28;20544;-76
2021/06/12 06:51:42;;;;;;;6.35;2.72;;;20.40;79.00;;;;;;5051767;28;20111;-76
2021/06/12 06:54:07;;;;;;;5.35;2.67;;;20.40;78.70;;;;;;5051076;28;20044;-77
2021/06/12 06:56:33;;;;;;;5.25;2.80;;;20.40;78.20;;;;;;5053273;28;20025;-76
2021/06/12 06:58:59;;;;;;;8.18;3.08;;;20.50;77.20;;;;;;5052326;28;20462;-76
2021/06/12 07:01:24;;;;;;;6.03;2.95;;;20.50;76.50;;;;;;5052929;28;20112;-75
2021/06/12 07:03:50;;;;;;;6.68;3.17;;;20.50;76.00;;;;;;5052237;28;20025;-76
2021/06/12 07:06:16;;;;;;;6.22;2.90;;;20.60;75.40;;;;;;5052518;28;20035;-76
2021/06/12 07:08:41;;;;;;;6.65;3.60;;;20.70;74.90;;;;;;5051462;28;20056;-75
2021/06/12 07:11:07;;;;;;;8.15;2.75;;;20.80;74.40;;;;;;5052164;28;20104;-77
2021/06/12 07:13:34;;;;;;;5.57;3.33;;;20.80;73.80;;;;;;5052655;28;20033;-76
2021/06/12 07:16:00;;;;;;;6.25;2.78;;;20.80;73.60;;;;;;5051965;28;20032;-75
2021/06/12 07:18:26;;;;;;;7.22;2.60;;;20.80;73.30;;;;;;5051080;28;20017;-76
2021/06/12 07:20:52;;;;;;;5.18;2.78;;;20.90;73.10;;;;;;5050721;28;20028;-76
2021/06/12 07:23:17;;;;;;;7.50;3.00;;;20.90;72.50;;;;;;5051184;28;20116;-77
2021/06/12 07:25:47;;;;;;;8.10;2.95;;;21.10;71.90;;;;;;5051217;28;20029;-76
2021/06/12 07:28:14;;;;;;;5.05;2.47;;;21.20;71.70;;;;;;5052000;28;20017;-75
2021/06/12 07:30:42;;;;;;;5.22;2.28;;;21.40;71.10;;;;;;5052466;28;20024;-77
2021/06/12 07:33:09;;;;;;;4.80;2.47;;;21.50;69.70;;;;;;5050533;28;20025;-77
2021/06/12 07:35:36;;;;;;;6.53;2.25;;;21.50;68.20;;;;;;5050787;28;20021;-78
2021/06/12 07:38:03;;;;;;;3.20;2.15;;;21.50;67.70;;;;;;5052228;28;20060;-77
2021/06/12 07:40:28;;;;;;;2.88;1.60;;;21.40;67.10;;;;;;5052707;28;20103;-76
2021/06/12 07:42:54;;;;;;;3.63;1.60;;;21.50;67.50;;;;;;5052062;28;20092;-75
2021/06/12 07:45:20;;;;;;;7.05;2.42;;;21.50;67.40;;;;;;5052185;28;20049;-76
2021/06/12 07:47:46;;;;;;;2.40;1.70;;;21.50;66.10;;;;;;5051052;28;20491;-75
2021/06/12 07:50:13;;;;;;;4.65;1.80;;;21.60;66.10;;;;;;5051868;28;20029;-77
2021/06/12 07:52:38;;;;;;;5.00;2.17;;;21.70;65.40;;;;;;5052234;28;20088;-76
2021/06/12 07:55:05;;;;;;;3.58;2.17;;;21.60;64.90;;;;;;5050463;28;20128;-76
2021/06/12 07:57:30;;;;;;;5.72;2.42;;;21.70;64.90;;;;;;5052507;28;20025;-77
2021/06/12 07:59:56;;;;;;;5.75;1.92;;;21.70;64.40;;;;;;5051597;28;20083;-77
2021/06/12 08:02:22;;;;;;;3.67;2.08;;;21.70;63.90;;;;;;5051780;28;20595;-76
2021/06/12 08:04:48;;;;;;;3.80;2.00;;;21.70;63.70;;;;;;5052027;28;20059;-75
2021/06/12 08:07:15;;;;;;;4.78;2.20;;;21.70;63.50;;;;;;5051332;28;20237;-76
2021/06/12 08:09:41;;;;;;;3.10;1.70;;;21.70;63.10;;;;;;5051942;28;20113;-76
2021/06/12 08:12:07;;;;;;;3.63;1.92;;;21.80;62.70;;;;;;5049991;28;20104;-75
2021/06/12 08:14:33;;;;;;;5.47;1.95;;;21.80;62.50;;;;;;5051778;28;20029;-77
2021/06/12 08:16:58;;;;;;;6.03;1.98;;;21.80;62.80;;;;;;5045948;28;20108;-76
2021/06/12 08:19:24;;;;;;;4.57;2.03;;;21.90;62.70;;;;;;5031069;28;20026;-76
2021/06/12 08:21:50;;;;;;;3.38;1.90;;;22.00;62.40;;;;;;5030469;28;20025;-77
2021/06/12 08:24:15;;;;;;;6.03;1.90;;;22.10;62.20;;;;;;5030954;28;20040;-76
2021/06/12 08:26:41;;;;;;;4.82;1.75;;;22.10;61.40;;;;;;5047214;28;20025;-76
2021/06/12 08:29:07;;;;;;;3.50;1.77;;;22.20;61.20;;;;;;5030471;28;20022;-77
2021/06/12 08:31:34;;;;;;;5.13;1.92;;;22.20;60.50;;;;;;5035470;28;20033;-76
2021/06/12 08:34:00;;;;;;;2.40;1.70;;;22.20;60.30;;;;;;5035073;28;20040;-76
2021/06/12 08:36:26;;;;;;;6.57;2.50;;;22.20;60.00;;;;;;5034166;28;20045;-75
2021/06/12 08:38:51;;;;;;;5.00;2.05;;;22.20;59.60;;;;;;5035371;28;20021;-75
2021/06/12 08:41:18;;;;;;;4.03;2.10;;;22.10;59.60;;;;;;5033856;28;20519;-76
2021/06/12 08:43:44;;;;;;;3.38;1.80;;;22.00;60.60;;;;;;5034339;28;20496;-76
2021/06/12 08:46:10;;;;;;;3.92;1.55;;;22.00;60.50;;;;;;5034989;28;20103;-75
2021/06/12 08:48:36;;;;;;;3.63;2.03;;;22.10;61.00;;;;;;5034222;28;20021;-76
2021/06/12 08:51:02;;;;;;;5.20;2.30;;;22.10;59.80;;;;;;5034803;28;20377;-75
2021/06/12 08:53:31;;;;;;;5.82;2.20;;;22.00;59.40;;;;;;5035372;28;20044;-76
2021/06/12 08:55:58;;;;;;;3.60;1.90;;;22.10;59.10;;;;;;5035452;28;20025;-76
2021/06/12 08:58:24;;;;;;;2.72;1.67;;;22.10;58.90;;;;;;5035495;28;20021;-76
2021/06/12 09:00:50;;;;;;;3.50;1.70;;;22.20;58.80;;;;;;5034111;28;20021;-76
2021/06/12 09:03:22;;;;;;;5.18;1.70;;;22.30;58.10;;;;;;5033390;28;20495;-76
2021/06/12 09:05:56;;;;;;;3.75;1.80;;;22.30;57.90;;;;;;5035202;28;20018;-76
2021/06/12 09:08:33;;;;;;;3.08;2.00;;;22.30;57.80;;;;;;5034652;28;20026;-76
2021/06/12 09:11:11;;;;;;;3.78;1.67;;;22.30;57.60;;;;;;5034792;28;20075;-77
2021/06/12 09:13:53;;;;;;;3.28;1.73;;;22.30;57.70;;;;;;5033883;28;20029;-76
2021/06/12 09:16:23;;;;;;;5.95;1.65;;;22.40;57.50;;;;;;5034801;28;20341;-76
2021/06/12 09:18:50;;;;;;;3.80;2.03;;;22.40;57.60;;;;;;5035076;28;20022;-76
2021/06/12 09:21:34;;;;;;;6.05;2.13;;;22.40;57.50;;;;;;5032962;28;20212;-77
2021/06/12 09:24:01;;;;;;;6.22;2.20;;;22.50;56.90;;;;;;5034450;28;20026;-77
2021/06/12 09:26:51;;;;;;;4.68;2.05;;;22.50;56.10;;;;;;5033572;28;20032;-77
2021/06/12 09:29:19;;;;;;;3.65;2.08;;;22.50;56.20;;;;;;5034218;28;20014;-77
2021/06/12 09:31:50;;;;;;;3.33;1.50;;;22.50;56.60;;;;;;5034764;28;20072;-76
2021/06/12 09:34:18;;;;;;;;;;;22.60;56.30;;;;;;5034544;28;20033;-76
2021/06/12 09:36:44;;;;;;;5.22;2.17;;;22.60;55.80;;;;;;5033075;28;19917;-77
2021/06/12 09:39:22;;;;;;;6.88;2.30;;;22.60;56.10;;;;;;5034011;28;20024;-77
2021/06/12 09:41:53;;;;;;;6.28;2.10;;;22.60;56.40;;;;;;5033021;28;20036;-77
2021/06/12 09:44:35;;;;;;;3.10;1.75;;;22.70;56.40;;;;;;5032556;28;20025;-76
2021/06/12 09:47:23;;;;;;;4.45;2.35;;;22.70;56.20;;;;;;5034144;28;20057;-78
2021/06/12 09:49:49;;;;;;;4.32;2.20;;;22.60;56.30;;;;;;5033970;28;20140;-76
2021/06/12 09:52:18;;;;;;;5.22;2.35;;;22.70;56.20;;;;;;5033657;28;20099;-76
2021/06/12 09:54:46;;;;;;;3.47;1.80;;;22.70;56.30;;;;;;5032989;28;20033;-76
2021/06/12 09:57:16;;;;;;;3.33;1.98;;;22.70;56.00;;;;;;5033449;28;20128;-76
2021/06/12 09:59:45;;;;;;;6.65;2.53;;;22.70;56.10;;;;;;5032884;28;20036;-76
2021/06/12 10:02:11;;;;;;;4.18;2.15;;;22.70;55.80;;;;;;5032270;28;20018;-76
2021/06/12 10:04:55;;;;;;;5.75;2.25;;;22.80;55.80;;;;;;5032886;28;20385;-76
2021/06/12 10:07:22;;;;;;;6.20;2.53;;;22.90;55.00;;;;;;5032344;28;20036;-76
2021/06/12 10:09:48;;;;;;;4.45;2.13;;;22.70;54.00;;;;;;5034208;28;20033;-77
2021/06/12 10:12:14;;;;;;;6.65;2.05;;;22.70;54.30;;;;;;5033399;28;20366;-77
2021/06/12 10:14:42;;;;;;;6.55;2.00;;;22.60;54.50;;;;;;5033997;28;20489;-75
2021/06/12 10:17:10;;;;;;;3.03;1.70;;;22.70;54.40;;;;;;5033146;28;20362;-77
2021/06/12 10:19:37;;;;;;;3.67;1.73;;;22.70;54.50;;;;;;5032576;28;20044;-77
2021/06/12 10:22:05;;;;;;;4.07;2.15;;;22.70;54.20;;;;;;5033828;28;20068;-75
2021/06/12 10:24:32;;;;;;;5.05;1.80;;;22.70;54.10;;;;;;5049237;28;20026;-75
2021/06/12 10:26:59;;;;;;;6.47;2.38;;;22.80;54.40;;;;;;5033402;28;20091;-75
2021/06/12 10:29:25;;;;;;;5.10;2.00;;;22.90;54.10;;;;;;5032774;28;20496;-75
2021/06/12 10:31:51;;;;;;;7.38;2.20;;;22.90;53.80;;;;;;5048942;28;20116;-76
2021/06/12 10:34:23;;;;;;;7.30;2.20;;;22.90;53.80;;;;;;5032474;28;20029;-76
2021/06/12 10:37:07;;;;;;;6.22;2.40;;;22.90;53.90;;;;;;5048599;28;20132;-76
2021/06/12 10:39:35;;;;;;;8.02;2.33;;;23.00;53.50;;;;;;5033447;28;20024;-77
2021/06/12 10:42:22;;;;;;;5.13;1.83;;;23.00;53.50;;;;;;5032085;28;20054;-76
2021/06/12 10:44:52;;;;;;;5.15;1.85;;;23.00;54.10;;;;;;5033382;28;20025;-77
2021/06/12 10:47:41;;;;;;;2.63;1.67;;;22.90;54.40;;;;;;5032677;28;20029;-76
2021/06/12 10:50:25;;;;;;;4.45;1.40;;;22.90;53.80;;;;;;5047984;28;20018;-78
2021/06/12 10:52:52;;;;;;;4.80;2.03;;;22.90;53.30;;;;;;5031235;28;20464;-76
2021/06/12 10:55:41;;;;;;;3.83;1.90;;;22.90;53.80;;;;;;5032424;28;20037;-77
2021/06/12 10:58:29;;;;;;;6.28;2.30;;;22.90;54.90;;;;;;5032783;28;20025;-78
2021/06/12 11:01:07;;;;;;;4.25;1.70;;;23.00;55.30;;;;;;5031618;28;20489;-76
2021/06/12 11:03:45;;;;;;;4.13;1.77;;;23.00;55.00;;;;;;5031612;28;20060;-76
2021/06/12 11:09:17;;;;;;;5.13;1.90;;;22.90;54.70;;;;;;5032835;28;20118;-76
2021/06/12 11:11:48;;;;;;;3.90;2.03;;;22.80;54.70;;;;;;5032908;28;20035;-76
2021/06/12 11:17:09;;;;;;;5.80;2.20;;;22.80;54.40;;;;;;5032857;28;20033;-76
2021/06/12 11:19:39;;;;;;;4.50;1.50;;;22.80;54.00;;;;;;5032782;28;20028;-76
2021/06/12 11:22:23;;;;;;;5.95;1.80;;;22.70;54.20;;;;;;5032643;28;20018;-76
2021/06/12 11:24:55;;;;;;;5.72;1.88;;;22.90;54.30;;;;;;5031368;28;20437;-76
2021/06/12 11:27:26;;;;;;;3.55;1.70;;;22.90;53.50;;;;;;5032027;28;20013;-77
2021/06/12 11:30:13;;;;;;;5.60;2.08;;;23.00;53.00;;;;;;5032167;28;20034;-76
2021/06/12 11:32:41;;;;;;;3.70;1.50;;;23.00;52.80;;;;;;5031150;28;20326;-76
2021/06/12 11:35:07;;;;;;;4.97;1.52;;;23.10;53.00;;;;;;5031067;28;20029;-77
2021/06/12 11:37:33;;;;;;;5.22;1.80;;;23.20;52.70;;;;;;5029905;28;20052;-77
2021/06/12 11:40:02;;;;;;;2.13;1.48;;;23.40;52.30;;;;;;5032073;28;20087;-77
2021/06/12 11:42:44;;;;;;;5.20;1.70;;;23.50;51.10;;;;;;5013725;28;20068;-76
2021/06/12 11:45:22;;;;;;;4.13;2.17;;;23.70;51.30;;;;;;5030846;28;20087;-77
2021/06/12 11:47:49;;;;;;;6.10;2.10;;;23.80;50.00;;;;;;5030895;28;20025;-77
2021/06/12 11:50:15;;;;;;;3.03;1.52;;;23.90;49.80;;;;;;5031661;28;20109;-77
2021/06/12 11:52:43;;;;;;;3.58;1.70;;;24.00;49.60;;;;;;5047388;28;20425;-77
2021/06/12 11:55:16;;;;;;;3.25;1.75;;;24.20;49.10;;;;;;5032139;28;20037;-77
2021/06/12 11:57:44;;;;;;;3.88;1.88;;;24.20;49.30;;;;;;5032043;28;20488;-77
2021/06/12 12:00:34;;;;;;;4.18;1.83;;;24.20;49.20;;;;;;5032110;28;20032;-76
2021/06/12 12:03:15;;;;;;;4.43;1.67;;;24.10;49.90;;;;;;5031760;28;20385;-77
2021/06/12 12:05:44;;;;;;;3.35;2.30;;;24.10;49.70;;;;;;5031405;28;20022;-76
2021/06/12 12:08:12;;;;;;;3.90;1.92;;;24.20;50.30;;;;;;5030784;28;20026;-75
2021/06/12 12:10:43;;;;;;;2.88;1.42;;;24.30;49.40;;;;;;5030758;28;20028;-76
2021/06/12 12:13:37;;;;;;;3.42;1.52;;;24.30;49.10;;;;;;5029771;28;20406;-76
2021/06/12 12:16:04;;;;;;;4.65;1.42;;;24.30;49.70;;;;;;5035014;28;20021;-77
2021/06/12 12:18:47;;;;;;;5.10;1.77;;;24.50;49.00;;;;;;5041523;28;20426;-76
2021/06/12 12:21:13;;;;;;;4.55;1.75;;;24.70;48.20;;;;;;5049412;28;20100;-79
2021/06/12 12:23:39;;;;;;;5.97;1.88;;;24.70;48.30;;;;;;5048026;28;20064;-76
2021/06/12 12:26:18;;;;;;;3.70;1.45;;;24.50;47.80;;;;;;5043077;28;20025;-75
2021/06/12 12:29:09;;;;;;;2.53;1.90;;;24.40;49.00;;;;;;5050777;28;20370;-76
2021/06/12 12:31:41;;;;;;;2.03;1.20;;;24.50;48.30;;;;;;5041190;28;20025;-77
2021/06/12 12:34:07;;;;;;;2.42;1.25;;;24.50;48.20;;;;;;5031654;28;20532;-76
2021/06/12 12:36:45;;;;;;;2.97;1.45;;;24.60;48.50;;;;;;5028189;28;20058;-77
2021/06/12 12:39:12;;;;;;;3.22;1.55;;;24.70;48.50;;;;;;5030631;28;20027;-76
2021/06/12 12:41:38;;;;;;;3.88;1.40;;;24.80;47.40;;;;;;5029960;28;20038;-76
2021/06/12 12:44:07;;;;;;;2.00;1.38;;;24.80;47.40;;;;;;5031337;28;20060;-76
2021/06/12 12:46:36;;;;;;;3.33;1.42;;;24.90;46.80;;;;;;5030148;28;20032;-76
2021/06/12 12:49:02;;;;;;;4.10;1.30;;;25.10;46.50;;;;;;5031362;28;20053;-76
2021/06/12 12:51:28;;;;;;;2.38;1.20;;;25.20;47.10;;;;;;5038274;28;20071;-76
2021/06/12 12:53:54;;;;;;;5.63;1.17;;;25.30;45.70;;;;;;5050085;28;20033;-77
2021/06/12 12:56:20;;;;;;;1.92;1.10;;;25.40;45.00;;;;;;5048583;28;20385;-77
2021/06/12 12:58:55;;;;;;;2.00;1.08;;;25.60;44.70;;;;;;5047795;28;20478;-76